Terminal Aerodrome Forecast
Issued by NWS Jackson, MS

Home | Current Version | Previous Version | Text Only | Print | Product List | Glossary On
Versions: 1 2 3 4 5 6 7 8 9 10 11 12 13 14
000
FTUS44 KJAN 260446 AAB
TAFGLH
TAF AMD
KGLH 260446Z 2605/2624 22020G40KT 1SM +TSRA BKN008 OVC025CB
     FM260600 20010G20KT 5SM -TSRA BKN010 OVC030CB
     FM260800 27006KT 6SM BR VCSH SCT010 BKN030
     FM261100 16010KT 5SM BR BKN008 OVC015
     FM261600 18013G22KT P6SM VCTS SCT020 BKN030CB=

USA.gov is the U.S. government's official web portal to all federal, state and local government web resources and services.